Wichita, KS (67218)

9:59 PM CST on March 02, 2015 (GMT -0600)
Grandview Heights | Change Station
CLOSE
Current Station
Personal Weather Station
Location: Wichita, KS
Elevation: 1335 ft
Nearby Weather Stations

Elev 1335 ft 37.66 °N, 97.29 °W | Updated 8 seconds ago

Overcast
Overcast
32.2 °F
Feels Like 25 °F
N
8.9
Wind Variable Wind from South
Gusts 12.3 mph

Today
High -- | Low -- °F
--% Chance of Precip.
Yesterday
High -- | Low -- °F
Precip. -- in
6:59 AM 6:23 PM
Waxing Gibbous, 94% visible
Pressure 30.01 in
Visibility 4.0 miles
Clouds Overcast 400 ft
Windchill 25 °F
Dew Point 30 °F
Humidity 91%
Rainfall 0.05 in
Snow Depth Not available.
UV 0.0 out of 12
Pollen .50 out of 12
Air Quality Not available.
Flu Activity Not available.
SPECI KIAB 030308Z AUTO 15015KT 4SM R19/4000FT BR OVC004 00/M01 A3001 RMK AO2 CIG 004V006 PRESFR

More Conditions Fewer Conditions

Pressure 30.01 in
Visibility 4.0 miles
Clouds Overcast 400 ft
Windchill 25 °F
Dew Point 30 °F
Humidity 91%
Rainfall 0.05 in
Snow Depth Not available.
UV 0.0 out of 12
Pollen .50 out of 12
Air Quality Not available.
Flu Activity Not available.
SPECI KIAB 030308Z AUTO 15015KT 4SM R19/4000FT BR OVC004 00/M01 A3001 RMK AO2 CIG 004V006 PRESFR

More Conditions Fewer Conditions

10-Day Weather Forecast

Almanac

Astronomy

Mar. 02, 2015 Rise Set
Actual Time
Civil Twilight
Nautical Twilight
Astronomical Twilight
Moon
Length of Visible Light
Length of Day
Tomorrow will be .
, % of the Moon is Illuminated

Today's Extremes

State Highs State Lows

Community

WunderPhotos

Upload Photos

1,802,060 photos uploaded!

WunderBlogs® & News

Nearby

Air Quality

  Air Quality AQ Index Pollutant
Not available.

Snow Depth

Station Depth Elevation

Earthquake Activity

City Distance Mag. Time & Date
Minimum magnitude displayed is 2.5.

Coastal Water Temperatures

Place Temperature

Nearby Weather Stations